sensor_id;sensor_type;location;lat;lon;timestamp;pressure;altitude;pressure_sealevel;temperature;humidity
54042;BME280;41156;51.508;5.406;2022-10-04T00:00:26;102252.50;;;12.20;97.36
54042;BME280;41156;51.508;5.406;2022-10-04T00:03:33;102251.66;;;12.19;96.89
54042;BME280;41156;51.508;5.406;2022-10-04T00:06:36;102256.22;;;12.19;96.63
54042;BME280;41156;51.508;5.406;2022-10-04T00:09:46;102254.38;;;12.19;96.03
54042;BME280;41156;51.508;5.406;2022-10-04T00:12:51;102254.38;;;12.19;96.24
54042;BME280;41156;51.508;5.406;2022-10-04T00:15:54;102247.91;;;12.20;98.55
54042;BME280;41156;51.508;5.406;2022-10-04T00:19:22;102244.56;;;12.18;98.20
54042;BME280;41156;51.508;5.406;2022-10-04T00:22:28;102244.56;;;12.18;96.78
54042;BME280;41156;51.508;5.406;2022-10-04T00:25:34;102242.88;;;12.17;96.73
54042;BME280;41156;51.508;5.406;2022-10-04T00:38:27;102219.47;;;11.95;96.60
54042;BME280;41156;51.508;5.406;2022-10-04T00:41:29;102219.19;;;11.90;96.59
54042;BME280;41156;51.508;5.406;2022-10-04T00:44:56;102220.78;;;11.84;98.15
54042;BME280;41156;51.508;5.406;2022-10-04T00:48:40;102222.38;;;11.78;97.18
54042;BME280;41156;51.508;5.406;2022-10-04T00:54:41;102227.97;;;11.77;96.89
54042;BME280;41156;51.508;5.406;2022-10-04T00:57:45;102229.22;;;11.74;97.29
54042;BME280;41156;51.508;5.406;2022-10-04T01:00:48;102221.47;;;11.71;96.92
54042;BME280;41156;51.508;5.406;2022-10-04T01:03:50;102219.13;;;11.68;96.41
54042;BME280;41156;51.508;5.406;2022-10-04T01:06:53;102204.28;;;11.64;97.29
54042;BME280;41156;51.508;5.406;2022-10-04T01:10:03;102198.59;;;11.59;97.31
54042;BME280;41156;51.508;5.406;2022-10-04T01:13:15;102188.81;;;11.58;97.70
54042;BME280;41156;51.508;5.406;2022-10-04T01:22:33;102181.59;;;11.50;98.30
54042;BME280;41156;51.508;5.406;2022-10-04T01:25:50;102189.09;;;11.48;98.48
54042;BME280;41156;51.508;5.406;2022-10-04T01:28:52;102184.03;;;11.45;97.46
54042;BME280;41156;51.508;5.406;2022-10-04T01:31:55;102176.28;;;11.42;97.40
54042;BME280;41156;51.508;5.406;2022-10-04T01:34:56;102168.53;;;11.39;96.91
54042;BME280;41156;51.508;5.406;2022-10-04T01:37:57;102175.38;;;11.35;97.22
54042;BME280;41156;51.508;5.406;2022-10-04T01:40:59;102178.44;;;11.32;97.08
54042;BME280;41156;51.508;5.406;2022-10-04T01:44:03;102171.53;;;11.29;97.57
54042;BME280;41156;51.508;5.406;2022-10-04T01:47:11;102164.84;;;11.25;97.97
54042;BME280;41156;51.508;5.406;2022-10-04T01:50:19;102160.84;;;11.21;97.68
54042;BME280;41156;51.508;5.406;2022-10-04T01:53:27;102169.13;;;11.19;97.69
54042;BME280;41156;51.508;5.406;2022-10-04T01:56:32;102173.03;;;11.17;97.60
54042;BME280;41156;51.508;5.406;2022-10-04T01:59:42;102163.22;;;11.16;98.34
54042;BME280;41156;51.508;5.406;2022-10-04T02:05:50;102155.13;;;11.16;98.18
54042;BME280;41156;51.508;5.406;2022-10-04T02:08:53;102152.41;;;11.16;97.11
54042;BME280;41156;51.508;5.406;2022-10-04T02:11:56;102153.63;;;11.13;97.51
54042;BME280;41156;51.508;5.406;2022-10-04T02:15:00;102141.50;;;11.09;97.25
54042;BME280;41156;51.508;5.406;2022-10-04T02:18:02;102133.78;;;11.06;97.59
54042;BME280;41156;51.508;5.406;2022-10-04T02:21:06;102131.44;;;11.03;97.54
54042;BME280;41156;51.508;5.406;2022-10-04T02:24:08;102130.97;;;10.99;97.40
54042;BME280;41156;51.508;5.406;2022-10-04T02:27:08;102116.78;;;10.97;97.53
54042;BME280;41156;51.508;5.406;2022-10-04T02:30:11;102116.13;;;10.95;97.70
54042;BME280;41156;51.508;5.406;2022-10-04T02:33:11;102109.25;;;10.92;98.04
54042;BME280;41156;51.508;5.406;2022-10-04T02:36:12;102105.69;;;10.92;97.93
54042;BME280;41156;51.508;5.406;2022-10-04T02:39:33;102101.31;;;10.91;98.93
54042;BME280;41156;51.508;5.406;2022-10-04T02:42:39;102094.41;;;10.88;97.94
54042;BME280;41156;51.508;5.406;2022-10-04T02:48:50;102093.66;;;10.95;97.29
54042;BME280;41156;51.508;5.406;2022-10-04T02:51:59;102075.00;;;10.85;97.98
54042;BME280;41156;51.508;5.406;2022-10-04T02:55:05;102065.59;;;10.81;97.84
54042;BME280;41156;51.508;5.406;2022-10-04T02:58:13;102062.97;;;10.87;97.52
54042;BME280;41156;51.508;5.406;2022-10-04T03:01:23;102060.94;;;10.89;97.86
54042;BME280;41156;51.508;5.406;2022-10-04T03:04:31;102056.81;;;10.93;97.74
54042;BME280;41156;51.508;5.406;2022-10-04T03:07:34;102045.63;;;10.82;97.77
54042;BME280;41156;51.508;5.406;2022-10-04T03:10:35;102042.19;;;10.88;97.18
54042;BME280;41156;51.508;5.406;2022-10-04T03:13:39;102046.00;;;10.79;98.17
54042;BME280;41156;51.508;5.406;2022-10-04T03:16:44;102046.09;;;10.70;98.52
54042;BME280;41156;51.508;5.406;2022-10-04T03:19:47;102051.88;;;10.67;98.02
54042;BME280;41156;51.508;5.406;2022-10-04T03:22:52;102050.22;;;10.66;98.45
54042;BME280;41156;51.508;5.406;2022-10-04T03:26:19;102040.59;;;10.64;98.22
54042;BME280;41156;51.508;5.406;2022-10-04T03:29:23;102032.22;;;10.59;98.29
54042;BME280;41156;51.508;5.406;2022-10-04T03:32:24;102034.44;;;10.55;99.42
54042;BME280;41156;51.508;5.406;2022-10-04T03:35:36;102025.88;;;10.51;99.70
54042;BME280;41156;51.508;5.406;2022-10-04T03:38:38;102024.19;;;10.50;99.01
54042;BME280;41156;51.508;5.406;2022-10-04T03:41:39;102025.06;;;10.51;98.36
54042;BME280;41156;51.508;5.406;2022-10-04T03:44:43;102017.13;;;10.49;99.14
54042;BME280;41156;51.508;5.406;2022-10-04T03:47:47;102020.19;;;10.46;98.83
54042;BME280;41156;51.508;5.406;2022-10-04T03:50:49;102011.44;;;10.44;98.95
54042;BME280;41156;51.508;5.406;2022-10-04T03:53:55;102017.84;;;10.43;98.79
54042;BME280;41156;51.508;5.406;2022-10-04T03:56:57;102007.22;;;10.42;98.58
54042;BME280;41156;51.508;5.406;2022-10-04T03:59:59;102008.25;;;10.41;98.39
54042;BME280;41156;51.508;5.406;2022-10-04T04:03:04;102008.66;;;10.38;98.91
54042;BME280;41156;51.508;5.406;2022-10-04T04:06:12;102000.72;;;10.36;98.55
54042;BME280;41156;51.508;5.406;2022-10-04T04:09:21;102004.44;;;10.35;98.70
54042;BME280;41156;51.508;5.406;2022-10-04T04:15:33;102012.72;;;10.33;98.85
54042;BME280;41156;51.508;5.406;2022-10-04T04:18:37;102008.16;;;10.34;98.83
54042;BME280;41156;51.508;5.406;2022-10-04T04:21:40;102003.59;;;10.34;98.93
54042;BME280;41156;51.508;5.406;2022-10-04T04:24:42;102010.66;;;10.35;98.66
54042;BME280;41156;51.508;5.406;2022-10-04T04:27:45;102009.84;;;10.35;98.66
54042;BME280;41156;51.508;5.406;2022-10-04T04:30:57;102019.81;;;10.34;98.63
54042;BME280;41156;51.508;5.406;2022-10-04T04:34:03;102016.63;;;10.31;98.33
54042;BME280;41156;51.508;5.406;2022-10-04T04:37:08;102013.22;;;10.29;98.88
54042;BME280;41156;51.508;5.406;2022-10-04T04:40:19;102015.09;;;10.28;98.60
54042;BME280;41156;51.508;5.406;2022-10-04T04:43:20;102010.06;;;10.25;98.66
54042;BME280;41156;51.508;5.406;2022-10-04T04:46:24;102000.09;;;10.26;98.49
54042;BME280;41156;51.508;5.406;2022-10-04T04:49:26;102001.78;;;10.27;98.76
54042;BME280;41156;51.508;5.406;2022-10-04T04:52:28;101992.84;;;10.26;98.66
54042;BME280;41156;51.508;5.406;2022-10-04T04:55:50;101984.94;;;10.25;98.69
54042;BME280;41156;51.508;5.406;2022-10-04T04:58:56;101980.53;;;10.24;98.55
54042;BME280;41156;51.508;5.406;2022-10-04T05:01:58;101978.69;;;10.24;99.02
54042;BME280;41156;51.508;5.406;2022-10-04T05:05:24;101981.75;;;10.21;100.00
54042;BME280;41156;51.508;5.406;2022-10-04T05:08:30;101982.78;;;10.20;98.45
54042;BME280;41156;51.508;5.406;2022-10-04T05:11:36;101987.16;;;10.21;98.84
54042;BME280;41156;51.508;5.406;2022-10-04T05:14:43;101983.59;;;10.21;98.36
54042;BME280;41156;51.508;5.406;2022-10-04T05:17:44;101982.13;;;10.18;98.88
54042;BME280;41156;51.508;5.406;2022-10-04T05:20:49;101987.88;;;10.15;98.21
54042;BME280;41156;51.508;5.406;2022-10-04T05:23:51;101991.13;;;10.10;98.05
54042;BME280;41156;51.508;5.406;2022-10-04T05:26:55;101988.97;;;10.06;97.99
54042;BME280;41156;51.508;5.406;2022-10-04T05:30:05;101988.31;;;10.04;97.81
54042;BME280;41156;51.508;5.406;2022-10-04T05:33:09;101987.03;;;9.99;97.97
54042;BME280;41156;51.508;5.406;2022-10-04T05:42:50;101992.16;;;9.94;98.25
54042;BME280;41156;51.508;5.406;2022-10-04T05:49:17;101992.16;;;9.94;98.29
54042;BME280;41156;51.508;5.406;2022-10-04T05:52:32;101998.84;;;9.98;98.04
54042;BME280;41156;51.508;5.406;2022-10-04T05:58:54;102011.88;;;9.95;97.84
54042;BME280;41156;51.508;5.406;2022-10-04T06:02:36;102006.47;;;9.95;99.24
54042;BME280;41156;51.508;5.406;2022-10-04T06:05:48;102007.31;;;9.95;98.50
54042;BME280;41156;51.508;5.406;2022-10-04T06:09:00;102005.47;;;9.96;98.28
54042;BME280;41156;51.508;5.406;2022-10-04T06:12:27;102009.00;;;9.96;98.80
54042;BME280;41156;51.508;5.406;2022-10-04T06:16:00;102011.16;;;10.01;98.97
54042;BME280;41156;51.508;5.406;2022-10-04T06:19:30;102011.25;;;10.08;99.06
54042;BME280;41156;51.508;5.406;2022-10-04T06:22:47;102013.59;;;10.11;99.27
54042;BME280;41156;51.508;5.406;2022-10-04T06:25:51;102004.94;;;10.15;98.25
54042;BME280;41156;51.508;5.406;2022-10-04T06:29:02;102013.81;;;10.24;98.70
54042;BME280;41156;51.508;5.406;2022-10-04T06:32:18;102014.28;;;10.28;98.42
54042;BME280;41156;51.508;5.406;2022-10-04T06:42:08;102001.19;;;10.40;98.79
54042;BME280;41156;51.508;5.406;2022-10-04T06:58:56;102006.78;;;10.68;96.82
54042;BME280;41156;51.508;5.406;2022-10-04T07:02:12;102002.38;;;10.67;96.75
54042;BME280;41156;51.508;5.406;2022-10-04T07:05:28;102002.03;;;10.70;96.92
54042;BME280;41156;51.508;5.406;2022-10-04T07:08:44;101993.44;;;10.66;96.84
54042;BME280;41156;51.508;5.406;2022-10-04T07:11:54;101995.50;;;10.64;97.09
54042;BME280;41156;51.508;5.406;2022-10-04T07:15:00;101995.09;;;10.67;97.00
54042;BME280;41156;51.508;5.406;2022-10-04T07:18:07;101991.66;;;10.73;96.69
54042;BME280;41156;51.508;5.406;2022-10-04T07:21:12;101991.03;;;10.71;96.80
54042;BME280;41156;51.508;5.406;2022-10-04T07:27:58;101978.78;;;10.90;96.68
54042;BME280;41156;51.508;5.406;2022-10-04T07:31:23;101982.88;;;11.01;96.51
54042;BME280;41156;51.508;5.406;2022-10-04T07:34:27;101994.06;;;10.98;96.63
54042;BME280;41156;51.508;5.406;2022-10-04T07:37:33;101974.75;;;11.01;97.09
54042;BME280;41156;51.508;5.406;2022-10-04T07:40:37;101986.28;;;11.10;96.83
54042;BME280;41156;51.508;5.406;2022-10-04T07:44:02;102001.84;;;11.23;97.08
54042;BME280;41156;51.508;5.406;2022-10-04T07:47:17;101992.63;;;11.39;96.47
54042;BME280;41156;51.508;5.406;2022-10-04T07:50:24;101992.91;;;11.44;96.75
54042;BME280;41156;51.508;5.406;2022-10-04T07:53:30;101999.31;;;11.58;97.17
54042;BME280;41156;51.508;5.406;2022-10-04T07:56:46;101995.16;;;12.05;95.98
54042;BME280;41156;51.508;5.406;2022-10-04T08:07:06;101983.34;;;13.44;93.15
54042;BME280;41156;51.508;5.406;2022-10-04T08:10:16;101986.50;;;13.75;95.76
54042;BME280;41156;51.508;5.406;2022-10-04T08:13:30;101980.44;;;13.99;93.00
54042;BME280;41156;51.508;5.406;2022-10-04T08:19:53;101968.94;;;14.17;91.15
54042;BME280;41156;51.508;5.406;2022-10-04T08:23:21;101969.13;;;14.29;89.81
54042;BME280;41156;51.508;5.406;2022-10-04T08:30:01;101978.28;;;14.48;88.98
54042;BME280;41156;51.508;5.406;2022-10-04T08:33:17;101975.34;;;14.63;89.76
54042;BME280;41156;51.508;5.406;2022-10-04T09:00:13;101983.69;;;15.13;84.97
54042;BME280;41156;51.508;5.406;2022-10-04T09:13:40;101993.38;;;15.41;79.37
54042;BME280;41156;51.508;5.406;2022-10-04T09:16:46;101993.34;;;15.48;79.78
54042;BME280;41156;51.508;5.406;2022-10-04T09:20:03;101989.94;;;15.59;78.07
54042;BME280;41156;51.508;5.406;2022-10-04T09:27:04;101980.13;;;15.83;77.35
54042;BME280;41156;51.508;5.406;2022-10-04T09:47:40;101953.84;;;16.88;77.78
54042;BME280;41156;51.508;5.406;2022-10-04T09:54:24;101960.59;;;17.04;75.09
54042;BME280;41156;51.508;5.406;2022-10-04T09:58:32;101962.91;;;17.19;73.52
54042;BME280;41156;51.508;5.406;2022-10-04T10:04:41;101965.81;;;17.36;76.36
54042;BME280;41156;51.508;5.406;2022-10-04T10:12:01;101955.19;;;17.70;72.53
54042;BME280;41156;51.508;5.406;2022-10-04T10:26:06;101942.03;;;18.14;73.67
54042;BME280;41156;51.508;5.406;2022-10-04T10:29:35;101928.81;;;18.35;71.33
54042;BME280;41156;51.508;5.406;2022-10-04T10:33:14;101935.66;;;18.61;69.67
54042;BME280;41156;51.508;5.406;2022-10-04T10:36:27;101930.75;;;18.63;71.00
54042;BME280;41156;51.508;5.406;2022-10-04T10:42:57;101943.88;;;18.61;67.39
54042;BME280;41156;51.508;5.406;2022-10-04T10:46:03;101941.81;;;18.68;68.80
54042;BME280;41156;51.508;5.406;2022-10-04T10:53:48;101955.31;;;18.98;68.14
54042;BME280;41156;51.508;5.406;2022-10-04T11:00:29;101949.50;;;18.95;67.49
54042;BME280;41156;51.508;5.406;2022-10-04T11:07:32;101937.88;;;18.88;67.36
54042;BME280;41156;51.508;5.406;2022-10-04T11:21:22;101911.16;;;19.23;65.61
54042;BME280;41156;51.508;5.406;2022-10-04T11:28:11;101900.44;;;19.56;67.64
54042;BME280;41156;51.508;5.406;2022-10-04T11:31:43;101891.22;;;19.62;62.05
54042;BME280;41156;51.508;5.406;2022-10-04T11:35:37;101894.78;;;19.63;62.27
54042;BME280;41156;51.508;5.406;2022-10-04T11:41:55;101898.88;;;19.77;65.29
54042;BME280;41156;51.508;5.406;2022-10-04T11:45:20;101890.47;;;19.84;63.77
54042;BME280;41156;51.508;5.406;2022-10-04T11:52:03;101891.94;;;19.91;64.08
54042;BME280;41156;51.508;5.406;2022-10-04T12:08:44;101877.38;;;20.08;63.36
54042;BME280;41156;51.508;5.406;2022-10-04T12:15:33;101877.28;;;20.03;61.84
54042;BME280;41156;51.508;5.406;2022-10-04T12:32:55;101856.75;;;20.27;59.45
54042;BME280;41156;51.508;5.406;2022-10-04T12:36:40;101856.72;;;20.22;59.12
54042;BME280;41156;51.508;5.406;2022-10-04T12:53:39;101840.25;;;20.72;56.19
54042;BME280;41156;51.508;5.406;2022-10-04T12:57:00;101835.91;;;20.76;58.67
54042;BME280;41156;51.508;5.406;2022-10-04T13:00:18;101824.16;;;20.80;56.90
54042;BME280;41156;51.508;5.406;2022-10-04T13:04:03;101826.91;;;20.80;56.00
54042;BME280;41156;51.508;5.406;2022-10-04T13:10:41;101817.31;;;20.83;55.47
54042;BME280;41156;51.508;5.406;2022-10-04T13:13:59;101812.75;;;20.94;57.53
54042;BME280;41156;51.508;5.406;2022-10-04T13:17:16;101803.44;;;21.00;55.98
54042;BME280;41156;51.508;5.406;2022-10-04T13:20:31;101808.13;;;20.99;54.76
54042;BME280;41156;51.508;5.406;2022-10-04T13:27:06;101793.81;;;20.97;55.33
54042;BME280;41156;51.508;5.406;2022-10-04T13:36:41;101802.41;;;20.74;58.38
54042;BME280;41156;51.508;5.406;2022-10-04T13:39:58;101802.66;;;20.50;56.59
54042;BME280;41156;51.508;5.406;2022-10-04T14:00:06;101784.97;;;19.52;59.83
54042;BME280;41156;51.508;5.406;2022-10-04T14:07:39;101767.28;;;19.43;60.47
54042;BME280;41156;51.508;5.406;2022-10-04T14:35:28;101723.84;;;19.13;60.40
54042;BME280;41156;51.508;5.406;2022-10-04T14:38:37;101720.75;;;19.09;62.55
54042;BME280;41156;51.508;5.406;2022-10-04T14:45:24;101712.53;;;19.26;60.96
54042;BME280;41156;51.508;5.406;2022-10-04T15:01:30;101730.13;;;19.13;62.01
54042;BME280;41156;51.508;5.406;2022-10-04T15:14:41;101720.69;;;19.04;62.14
54042;BME280;41156;51.508;5.406;2022-10-04T15:23:57;101740.69;;;18.88;63.08
54042;BME280;41156;51.508;5.406;2022-10-04T15:30:48;101744.78;;;18.73;63.17
54042;BME280;41156;51.508;5.406;2022-10-04T15:33:57;101732.69;;;18.69;64.32
54042;BME280;41156;51.508;5.406;2022-10-04T15:40:15;101732.78;;;18.57;64.13
54042;BME280;41156;51.508;5.406;2022-10-04T15:47:24;101726.59;;;18.50;64.89
54042;BME280;41156;51.508;5.406;2022-10-04T15:50:31;101718.31;;;18.45;65.10
54042;BME280;41156;51.508;5.406;2022-10-04T15:54:02;101723.69;;;18.40;65.12
54042;BME280;41156;51.508;5.406;2022-10-04T16:00:45;101726.00;;;18.31;65.28
54042;BME280;41156;51.508;5.406;2022-10-04T16:07:36;101727.44;;;18.22;66.15
54042;BME280;41156;51.508;5.406;2022-10-04T16:11:23;101720.81;;;18.18;65.82
54042;BME280;41156;51.508;5.406;2022-10-04T16:21:29;101720.63;;;18.07;67.90
54042;BME280;41156;51.508;5.406;2022-10-04T16:25:28;101727.66;;;18.03;69.17
54042;BME280;41156;51.508;5.406;2022-10-04T16:31:52;101732.00;;;17.87;68.86
54042;BME280;41156;51.508;5.406;2022-10-04T16:35:14;101742.47;;;17.79;69.35
54042;BME280;41156;51.508;5.406;2022-10-04T16:38:23;101741.50;;;17.73;68.84
54042;BME280;41156;51.508;5.406;2022-10-04T16:41:33;101745.47;;;17.65;69.31
54042;BME280;41156;51.508;5.406;2022-10-04T16:48:29;101747.84;;;17.50;69.48
54042;BME280;41156;51.508;5.406;2022-10-04T17:01:48;101768.03;;;17.13;72.00
54042;BME280;41156;51.508;5.406;2022-10-04T17:05:17;101762.09;;;17.05;72.25
54042;BME280;41156;51.508;5.406;2022-10-04T17:08:24;101757.19;;;16.95;72.31
54042;BME280;41156;51.508;5.406;2022-10-04T17:17:50;101762.59;;;16.71;74.12
54042;BME280;41156;51.508;5.406;2022-10-04T17:21:11;101774.06;;;16.61;74.71
54042;BME280;41156;51.508;5.406;2022-10-04T17:27:49;101776.50;;;16.39;75.79
54042;BME280;41156;51.508;5.406;2022-10-04T17:30:59;101776.22;;;16.29;75.35
54042;BME280;41156;51.508;5.406;2022-10-04T17:34:20;101780.69;;;16.23;76.76
54042;BME280;41156;51.508;5.406;2022-10-04T17:40:58;101787.97;;;16.11;75.33
54042;BME280;41156;51.508;5.406;2022-10-04T17:44:18;101788.66;;;16.06;77.64
54042;BME280;41156;51.508;5.406;2022-10-04T17:47:26;101790.78;;;16.04;76.58
54042;BME280;41156;51.508;5.406;2022-10-04T17:54:29;101802.50;;;16.05;76.86
54042;BME280;41156;51.508;5.406;2022-10-04T17:57:59;101804.78;;;16.08;77.14
54042;BME280;41156;51.508;5.406;2022-10-04T18:01:12;101799.25;;;16.15;76.61
54042;BME280;41156;51.508;5.406;2022-10-04T18:04:18;101802.81;;;16.15;76.83
54042;BME280;41156;51.508;5.406;2022-10-04T18:07:23;101797.13;;;16.17;77.42
54042;BME280;41156;51.508;5.406;2022-10-04T18:10:31;101785.16;;;16.18;76.57
54042;BME280;41156;51.508;5.406;2022-10-04T18:13:34;101791.44;;;16.18;77.01
54042;BME280;41156;51.508;5.406;2022-10-04T18:16:47;101783.47;;;16.17;77.00
54042;BME280;41156;51.508;5.406;2022-10-04T18:23:16;101761.84;;;16.03;76.70
54042;BME280;41156;51.508;5.406;2022-10-04T18:26:17;101745.56;;;15.97;76.44
54042;BME280;41156;51.508;5.406;2022-10-04T18:29:34;101746.28;;;15.92;77.40
54042;BME280;41156;51.508;5.406;2022-10-04T18:32:35;101744.84;;;15.89;76.54
54042;BME280;41156;51.508;5.406;2022-10-04T18:35:49;101754.13;;;15.82;77.47
54042;BME280;41156;51.508;5.406;2022-10-04T18:42:21;101738.75;;;15.69;77.94
54042;BME280;41156;51.508;5.406;2022-10-04T18:45:31;101752.47;;;15.62;78.56
54042;BME280;41156;51.508;5.406;2022-10-04T18:48:51;101747.53;;;15.52;78.29
54042;BME280;41156;51.508;5.406;2022-10-04T18:52:13;101752.38;;;15.50;79.56
54042;BME280;41156;51.508;5.406;2022-10-04T18:55:36;101753.88;;;15.46;79.12
54042;BME280;41156;51.508;5.406;2022-10-04T19:02:28;101753.34;;;15.38;79.88
54042;BME280;41156;51.508;5.406;2022-10-04T19:12:43;101758.13;;;15.42;79.36
54042;BME280;41156;51.508;5.406;2022-10-04T19:17:10;101761.81;;;15.48;80.22
54042;BME280;41156;51.508;5.406;2022-10-04T19:19:41;101768.72;;;15.50;79.33
54042;BME280;41156;51.508;5.406;2022-10-04T19:22:55;101772.88;;;15.53;79.91
54042;BME280;41156;51.508;5.406;2022-10-04T19:26:17;101763.22;;;15.57;79.11
54042;BME280;41156;51.508;5.406;2022-10-04T19:33:12;101754.34;;;15.62;79.11
54042;BME280;41156;51.508;5.406;2022-10-04T19:36:39;101765.59;;;15.65;78.33
54042;BME280;41156;51.508;5.406;2022-10-04T19:40:08;101748.81;;;15.68;78.38
54042;BME280;41156;51.508;5.406;2022-10-04T19:43:19;101750.25;;;15.71;79.12
54042;BME280;41156;51.508;5.406;2022-10-04T19:53:19;101734.50;;;15.73;78.73
54042;BME280;41156;51.508;5.406;2022-10-04T19:56:23;101741.88;;;15.72;78.62
54042;BME280;41156;51.508;5.406;2022-10-04T19:59:35;101738.06;;;15.73;78.84
54042;BME280;41156;51.508;5.406;2022-10-04T20:02:41;101734.50;;;15.73;78.43
54042;BME280;41156;51.508;5.406;2022-10-04T20:05:44;101733.69;;;15.72;78.23
54042;BME280;41156;51.508;5.406;2022-10-04T20:08:55;101730.97;;;15.72;78.68
54042;BME280;41156;51.508;5.406;2022-10-04T20:11:58;101731.56;;;15.75;78.58
54042;BME280;41156;51.508;5.406;2022-10-04T20:15:20;101724.44;;;15.73;78.67
54042;BME280;41156;51.508;5.406;2022-10-04T20:21:31;101722.97;;;15.78;78.65
54042;BME280;41156;51.508;5.406;2022-10-04T20:30:50;101723.78;;;15.78;79.12
54042;BME280;41156;51.508;5.406;2022-10-04T20:33:51;101721.91;;;15.79;78.64
54042;BME280;41156;51.508;5.406;2022-10-04T20:36:51;101723.47;;;15.68;79.54
54042;BME280;41156;51.508;5.406;2022-10-04T20:46:21;101726.94;;;15.57;79.57
54042;BME280;41156;51.508;5.406;2022-10-04T20:49:22;101717.94;;;15.56;79.79
54042;BME280;41156;51.508;5.406;2022-10-04T20:52:30;101708.94;;;15.56;79.91
54042;BME280;41156;51.508;5.406;2022-10-04T20:55:34;101713.53;;;15.55;79.89
54042;BME280;41156;51.508;5.406;2022-10-04T20:58:34;101707.28;;;15.54;80.17
54042;BME280;41156;51.508;5.406;2022-10-04T21:01:35;101712.94;;;15.53;79.61
54042;BME280;41156;51.508;5.406;2022-10-04T21:04:36;101722.16;;;15.52;80.00
54042;BME280;41156;51.508;5.406;2022-10-04T21:07:45;101727.63;;;15.52;79.79
54042;BME280;41156;51.508;5.406;2022-10-04T21:11:08;101732.25;;;15.51;80.14
54042;BME280;41156;51.508;5.406;2022-10-04T21:14:21;101727.88;;;15.50;80.02
54042;BME280;41156;51.508;5.406;2022-10-04T21:20:48;101717.19;;;15.49;80.61
54042;BME280;41156;51.508;5.406;2022-10-04T21:23:49;101727.25;;;15.48;80.32
54042;BME280;41156;51.508;5.406;2022-10-04T21:26:56;101725.59;;;15.47;80.76
54042;BME280;41156;51.508;5.406;2022-10-04T21:29:57;101728.31;;;15.47;80.00
54042;BME280;41156;51.508;5.406;2022-10-04T21:32:58;101717.66;;;15.46;80.21
54042;BME280;41156;51.508;5.406;2022-10-04T21:35:58;101715.97;;;15.45;80.88
54042;BME280;41156;51.508;5.406;2022-10-04T21:38:59;101723.53;;;15.43;80.80
54042;BME280;41156;51.508;5.406;2022-10-04T21:41:59;101730.88;;;15.42;80.57
54042;BME280;41156;51.508;5.406;2022-10-04T21:44:59;101725.44;;;15.42;81.15
54042;BME280;41156;51.508;5.406;2022-10-04T21:48:00;101726.47;;;15.41;81.17
54042;BME280;41156;51.508;5.406;2022-10-04T21:51:03;101730.25;;;15.40;81.09
54042;BME280;41156;51.508;5.406;2022-10-04T21:54:04;101739.56;;;15.32;81.67
54042;BME280;41156;51.508;5.406;2022-10-04T21:57:04;101739.06;;;15.42;81.63
54042;BME280;41156;51.508;5.406;2022-10-04T22:00:05;101740.09;;;15.41;81.78
54042;BME280;41156;51.508;5.406;2022-10-04T22:03:06;101742.38;;;15.44;81.52
54042;BME280;41156;51.508;5.406;2022-10-04T22:06:06;101747.06;;;15.37;81.58
54042;BME280;41156;51.508;5.406;2022-10-04T22:09:06;101732.97;;;15.40;81.76
54042;BME280;41156;51.508;5.406;2022-10-04T22:12:07;101725.66;;;15.41;82.04
54042;BME280;41156;51.508;5.406;2022-10-04T22:15:08;101731.94;;;15.41;82.27
54042;BME280;41156;51.508;5.406;2022-10-04T22:18:08;101732.75;;;15.42;81.63
54042;BME280;41156;51.508;5.406;2022-10-04T22:21:09;101727.69;;;15.45;82.04
54042;BME280;41156;51.508;5.406;2022-10-04T22:24:16;101725.44;;;15.42;82.67
54042;BME280;41156;51.508;5.406;2022-10-04T22:27:18;101726.88;;;15.45;82.46
54042;BME280;41156;51.508;5.406;2022-10-04T22:30:28;101727.69;;;15.45;82.11
54042;BME280;41156;51.508;5.406;2022-10-04T22:33:38;101732.31;;;15.45;82.46
54042;BME280;41156;51.508;5.406;2022-10-04T22:36:40;101724.97;;;15.45;83.02
54042;BME280;41156;51.508;5.406;2022-10-04T22:39:40;101721.84;;;15.42;82.05
54042;BME280;41156;51.508;5.406;2022-10-04T22:42:41;101715.59;;;15.41;82.77
54042;BME280;41156;51.508;5.406;2022-10-04T22:45:41;101700.94;;;15.42;82.20
54042;BME280;41156;51.508;5.406;2022-10-04T22:48:43;101692.13;;;15.40;83.24
54042;BME280;41156;51.508;5.406;2022-10-04T22:51:47;101686.91;;;15.39;82.85
54042;BME280;41156;51.508;5.406;2022-10-04T22:54:50;101686.91;;;15.39;82.66
54042;BME280;41156;51.508;5.406;2022-10-04T22:57:51;101694.47;;;15.36;82.83
54042;BME280;41156;51.508;5.406;2022-10-04T23:00:53;101698.06;;;15.37;83.35
54042;BME280;41156;51.508;5.406;2022-10-04T23:03:55;101672.69;;;15.36;82.90
54042;BME280;41156;51.508;5.406;2022-10-04T23:06:56;101669.16;;;15.36;82.81
54042;BME280;41156;51.508;5.406;2022-10-04T23:09:57;101676.50;;;15.35;82.94
54042;BME280;41156;51.508;5.406;2022-10-04T23:12:57;101676.72;;;15.34;83.41
54042;BME280;41156;51.508;5.406;2022-10-04T23:16:00;101672.31;;;15.33;83.59
54042;BME280;41156;51.508;5.406;2022-10-04T23:19:10;101674.22;;;15.32;84.30
54042;BME280;41156;51.508;5.406;2022-10-04T23:22:16;101665.41;;;15.30;83.91
54042;BME280;41156;51.508;5.406;2022-10-04T23:25:26;101667.31;;;15.30;83.93
54042;BME280;41156;51.508;5.406;2022-10-04T23:28:26;101674.66;;;15.29;83.92
54042;BME280;41156;51.508;5.406;2022-10-04T23:31:27;101665.03;;;15.27;84.31
54042;BME280;41156;51.508;5.406;2022-10-04T23:34:32;101675.09;;;15.26;84.60
54042;BME280;41156;51.508;5.406;2022-10-04T23:37:33;101654.59;;;15.24;84.40
54042;BME280;41156;51.508;5.406;2022-10-04T23:40:33;101651.06;;;15.23;83.99
54042;BME280;41156;51.508;5.406;2022-10-04T23:43:33;101661.13;;;15.23;84.62
54042;BME280;41156;51.508;5.406;2022-10-04T23:46:33;101666.78;;;15.21;84.91